createdAt,value
2022-09-21T00:00:45.231Z,7.80
2022-09-21T00:03:45.661Z,7.90
2022-09-21T00:06:59.575Z,7.70
2022-09-21T00:09:40.388Z,8.40
2022-09-21T00:12:51.171Z,7.40
2022-09-21T00:15:48.728Z,7.90
2022-09-21T00:18:32.065Z,7.50
2022-09-21T00:21:16.327Z,7.00
2022-09-21T00:23:59.861Z,6.90
2022-09-21T00:26:42.807Z,7.00
2022-09-21T00:29:32.085Z,6.00
2022-09-21T00:32:13.522Z,7.80
2022-09-21T00:34:50.845Z,6.80
2022-09-21T00:37:22.486Z,5.80
2022-09-21T00:40:06.434Z,6.50
2022-09-21T00:42:51.064Z,6.20
2022-09-21T00:45:35.849Z,6.70
2022-09-21T00:48:08.900Z,5.90
2022-09-21T00:51:00.996Z,7.20
2022-09-21T00:54:27.915Z,6.40
2022-09-21T00:58:19.932Z,5.60
2022-09-21T01:01:01.478Z,6.50
2022-09-21T01:04:17.978Z,5.70
2022-09-21T01:07:47.840Z,6.00
2022-09-21T01:11:21.691Z,6.00
2022-09-21T01:15:48.248Z,5.90
2022-09-21T01:19:03.118Z,6.60
2022-09-21T01:22:35.307Z,6.80
2022-09-21T01:25:33.784Z,7.00
2022-09-21T01:29:25.800Z,6.50
2022-09-21T01:32:29.788Z,6.90
2022-09-21T01:35:25.323Z,6.40
2022-09-21T01:38:13.059Z,6.50
2022-09-21T01:41:19.802Z,6.60
2022-09-21T01:44:22.928Z,6.60
2022-09-21T01:47:13.117Z,7.00
2022-09-21T01:49:52.797Z,6.50
2022-09-21T01:53:39.271Z,6.40
2022-09-21T01:56:27.434Z,6.10
2022-09-21T01:59:52.711Z,6.00
2022-09-21T02:02:52.737Z,7.10
2022-09-21T02:05:43.020Z,7.50
2022-09-21T02:08:35.718Z,7.70
2022-09-21T02:11:58.205Z,6.50
2022-09-21T02:15:05.823Z,6.90
2022-09-21T02:18:50.867Z,6.60
2022-09-21T02:22:41.420Z,6.00
2022-09-21T02:26:18.212Z,7.30
2022-09-21T02:30:33.601Z,6.50
2022-09-21T02:34:19.746Z,7.00
2022-09-21T02:37:40.258Z,6.40
2022-09-21T02:40:56.419Z,6.80
2022-09-21T02:44:42.528Z,6.40
2022-09-21T02:48:25.972Z,6.50
2022-09-21T02:52:29.432Z,6.70
2022-09-21T03:05:10.907Z,6.50
2022-09-21T03:08:01.856Z,7.00
2022-09-21T03:11:07.116Z,7.00
2022-09-21T03:13:46.095Z,8.40
2022-09-21T03:16:33.944Z,8.60
2022-09-21T03:19:16.894Z,8.40
2022-09-21T03:22:11.164Z,7.80
2022-09-21T03:25:17.517Z,7.30
2022-09-21T03:27:55.776Z,6.90
2022-09-21T03:30:48.253Z,6.30
2022-09-21T03:33:52.360Z,6.30
2022-09-21T03:37:01.011Z,6.30
2022-09-21T03:39:51.030Z,5.20
2022-09-21T03:42:33.547Z,5.80
2022-09-21T03:46:03.733Z,6.30
2022-09-21T03:49:06.800Z,6.10
2022-09-21T03:51:45.027Z,6.20
2022-09-21T03:54:33.323Z,6.50
2022-09-21T03:57:38.882Z,5.60
2022-09-21T04:00:46.603Z,6.30
2022-09-21T04:03:36.342Z,6.70
2022-09-21T04:06:49.625Z,7.50
2022-09-21T04:09:46.411Z,8.20
2022-09-21T04:12:53.302Z,8.70
2022-09-21T04:15:47.482Z,8.30
2022-09-21T04:18:26.956Z,8.20
2022-09-21T04:21:31.276Z,9.80
2022-09-21T04:25:09.565Z,9.00
2022-09-21T04:28:12.377Z,7.70
2022-09-21T04:31:47.821Z,7.20
2022-09-21T04:34:54.272Z,7.20
2022-09-21T04:38:04.648Z,9.00
2022-09-21T04:41:06.263Z,8.30
2022-09-21T04:44:26.060Z,7.40
2022-09-21T04:48:06.925Z,9.50
2022-09-21T04:52:14.781Z,10.70
2022-09-21T04:56:25.231Z,9.70
2022-09-21T05:08:30.119Z,11.50
2022-09-21T05:11:45.890Z,13.60
2022-09-21T05:14:50.263Z,9.60
2022-09-21T05:18:01.989Z,10.20
2022-09-21T05:21:37.816Z,11.50
2022-09-21T05:28:44.372Z,13.80
2022-09-21T05:31:58.767Z,10.70
2022-09-21T05:39:01.808Z,8.00
2022-09-21T05:42:01.877Z,7.20
2022-09-21T05:51:58.701Z,6.80
2022-09-21T05:56:05.266Z,7.00
2022-09-21T05:59:55.796Z,6.80
2022-09-21T06:03:08.020Z,8.50
2022-09-21T06:05:53.792Z,8.00
2022-09-21T06:09:11.967Z,9.50
2022-09-21T06:12:02.090Z,8.80
2022-09-21T06:14:55.373Z,8.50
2022-09-21T06:18:18.231Z,8.50
2022-09-21T06:21:12.128Z,8.00
2022-09-21T06:24:28.023Z,6.40
2022-09-21T06:27:17.543Z,8.10
2022-09-21T06:31:01.519Z,5.80
2022-09-21T06:33:31.691Z,6.30
2022-09-21T06:36:25.665Z,6.40
2022-09-21T06:39:07.728Z,6.00
2022-09-21T06:42:05.236Z,5.50
2022-09-21T06:44:49.893Z,5.60
2022-09-21T06:47:26.117Z,5.90
2022-09-21T06:50:13.241Z,5.50
2022-09-21T06:52:52.270Z,5.20
2022-09-21T06:55:36.653Z,5.90
2022-09-21T06:58:22.906Z,5.00
2022-09-21T07:01:17.996Z,5.10
2022-09-21T07:04:05.052Z,4.80
2022-09-21T07:07:12.690Z,4.20
2022-09-21T07:10:13.158Z,5.30
2022-09-21T07:13:07.971Z,5.10
2022-09-21T07:15:54.582Z,4.60
2022-09-21T07:18:42.583Z,4.60
2022-09-21T07:21:23.846Z,5.10
2022-09-21T07:23:56.929Z,6.10
2022-09-21T07:26:29.427Z,8.10
2022-09-21T07:32:36.714Z,6.10
2022-09-21T07:35:13.728Z,5.60
2022-09-21T07:38:05.167Z,4.70
2022-09-21T07:41:09.347Z,5.30
2022-09-21T07:48:47.109Z,4.50
2022-09-21T07:51:24.205Z,3.60
2022-09-21T07:54:04.658Z,4.10
2022-09-21T07:56:52.298Z,4.40
2022-09-21T08:00:08.462Z,4.60
2022-09-21T08:03:24.543Z,3.60
2022-09-21T08:06:30.774Z,3.70
2022-09-21T08:09:27.974Z,4.20
2022-09-21T08:12:55.944Z,4.20
2022-09-21T08:16:20.613Z,3.30
2022-09-21T08:23:18.902Z,3.40
2022-09-21T08:26:49.122Z,3.80
2022-09-21T08:30:37.221Z,4.40
2022-09-21T08:33:38.191Z,3.10
2022-09-21T08:36:10.708Z,3.80
2022-09-21T08:38:49.556Z,3.60
2022-09-21T08:41:27.137Z,2.90
2022-09-21T08:47:25.744Z,2.80
2022-09-21T08:50:04.623Z,4.30
2022-09-21T08:53:00.145Z,3.10
2022-09-21T08:56:06.177Z,3.40
2022-09-21T08:59:00.601Z,2.50
2022-09-21T09:02:08.798Z,2.60
2022-09-21T09:05:21.190Z,2.90
2022-09-21T09:08:16.741Z,2.60
2022-09-21T09:11:26.608Z,2.00
2022-09-21T09:14:21.478Z,4.00
2022-09-21T09:17:19.048Z,2.30
2022-09-21T09:20:13.070Z,2.10
2022-09-21T09:23:29.886Z,2.80
2022-09-21T09:26:51.404Z,1.60
2022-09-21T09:30:26.595Z,2.20
2022-09-21T09:34:22.887Z,2.10
2022-09-21T09:37:10.654Z,3.60
2022-09-21T09:39:42.615Z,3.00
2022-09-21T09:42:41.228Z,2.70
2022-09-21T09:48:54.265Z,1.80
2022-09-21T09:51:30.833Z,1.40
2022-09-21T09:54:20.505Z,2.00
2022-09-21T09:56:56.964Z,2.80
2022-09-21T10:00:23.977Z,2.00
2022-09-21T10:03:04.089Z,3.00
2022-09-21T10:05:38.874Z,1.10
2022-09-21T10:11:59.096Z,1.20
2022-09-21T10:14:38.047Z,1.10
2022-09-21T10:17:22.532Z,2.00
2022-09-21T10:20:21.304Z,1.20
2022-09-21T10:23:14.534Z,1.50
2022-09-21T10:25:54.839Z,1.20
2022-09-21T10:28:29.911Z,1.20
2022-09-21T10:31:25.167Z,1.00
2022-09-21T10:34:13.587Z,1.40
2022-09-21T10:36:56.087Z,1.60
2022-09-21T10:39:28.577Z,1.50
2022-09-21T10:42:26.663Z,1.20
2022-09-21T10:45:25.118Z,1.40
2022-09-21T10:48:15.216Z,1.20
2022-09-21T10:50:54.221Z,1.40
2022-09-21T10:53:32.793Z,1.50
2022-09-21T10:56:17.619Z,2.00
2022-09-21T10:59:42.006Z,2.40
2022-09-21T11:02:33.239Z,2.20
2022-09-21T11:05:20.029Z,2.00
2022-09-21T11:08:22.911Z,2.00
2022-09-21T11:11:41.974Z,2.20
2022-09-21T11:14:23.045Z,4.50
2022-09-21T11:17:10.215Z,3.60
2022-09-21T11:19:57.979Z,4.80
2022-09-21T11:22:45.710Z,6.30
2022-09-21T11:25:48.835Z,5.70
2022-09-21T11:29:27.926Z,2.60
2022-09-21T11:32:19.412Z,4.80
2022-09-21T11:35:27.119Z,5.90
2022-09-21T11:38:30.945Z,3.20
2022-09-21T11:41:42.837Z,3.00
2022-09-21T11:44:29.791Z,2.00
2022-09-21T11:47:43.222Z,2.00
2022-09-21T11:50:33.582Z,2.40
2022-09-21T11:53:29.274Z,2.30
2022-09-21T11:56:54.462Z,1.60
2022-09-21T11:59:55.390Z,2.70
2022-09-21T12:05:42.321Z,2.50
2022-09-21T12:08:43.858Z,2.00
2022-09-21T12:11:56.198Z,1.50
2022-09-21T12:14:43.700Z,1.40
2022-09-21T12:18:10.266Z,1.40
2022-09-21T12:21:19.990Z,1.30
2022-09-21T12:24:13.152Z,1.60
2022-09-21T12:27:20.008Z,1.70
2022-09-21T12:30:16.603Z,1.50
2022-09-21T12:32:52.231Z,1.70
2022-09-21T12:38:38.114Z,1.60
2022-09-21T12:41:53.685Z,1.70
2022-09-21T12:45:03.169Z,2.10
2022-09-21T12:51:06.419Z,2.40
2022-09-21T12:53:52.950Z,3.30
2022-09-21T12:56:38.531Z,1.90
2022-09-21T12:59:39.389Z,1.70
2022-09-21T13:02:47.911Z,1.50
2022-09-21T13:09:30.567Z,1.50
2022-09-21T13:12:44.941Z,1.50
2022-09-21T13:15:37.965Z,1.00
2022-09-21T13:18:35.138Z,1.00
2022-09-21T13:21:27.049Z,1.50
2022-09-21T13:24:11.498Z,0.90
2022-09-21T13:27:05.394Z,1.30
2022-09-21T13:30:43.564Z,1.20
2022-09-21T13:33:23.721Z,1.00
2022-09-21T13:36:39.313Z,1.20
2022-09-21T13:39:26.098Z,1.40
2022-09-21T13:42:50.251Z,1.40
2022-09-21T13:45:39.858Z,1.60
2022-09-21T13:48:28.911Z,4.90
2022-09-21T13:51:14.409Z,1.60
2022-09-21T13:54:14.543Z,2.50
2022-09-21T13:57:12.661Z,8.70
2022-09-21T13:59:47.037Z,5.20
2022-09-21T14:03:05.814Z,3.40
2022-09-21T14:06:42.577Z,4.80
2022-09-21T14:09:49.646Z,7.70
2022-09-21T14:13:04.295Z,4.00
2022-09-21T14:15:43.549Z,3.50
2022-09-21T14:21:25.690Z,2.60
2022-09-21T14:25:03.779Z,2.50
2022-09-21T14:28:13.835Z,2.30
2022-09-21T14:30:57.103Z,2.10
2022-09-21T14:33:49.359Z,1.70
2022-09-21T14:36:55.613Z,1.90
2022-09-21T14:39:44.605Z,1.70
2022-09-21T14:42:37.548Z,2.00
2022-09-21T14:45:23.633Z,2.60
2022-09-21T14:48:38.407Z,2.50
2022-09-21T14:52:12.597Z,2.50
2022-09-21T14:55:25.104Z,2.40
2022-09-21T14:58:25.099Z,2.10
2022-09-21T15:01:26.100Z,2.50
2022-09-21T15:04:10.144Z,2.10
2022-09-21T15:07:12.684Z,2.50
2022-09-21T15:10:34.629Z,2.40
2022-09-21T15:13:36.703Z,2.50
2022-09-21T15:16:24.238Z,1.40
2022-09-21T15:19:27.207Z,1.60
2022-09-21T15:22:22.847Z,1.60
2022-09-21T15:25:03.224Z,1.70
2022-09-21T15:27:46.352Z,2.10
2022-09-21T15:30:36.370Z,2.20
2022-09-21T15:33:22.131Z,1.90
2022-09-21T15:36:15.232Z,2.30
2022-09-21T15:38:52.955Z,2.40
2022-09-21T15:41:47.777Z,2.20
2022-09-21T15:44:42.976Z,3.00
2022-09-21T15:47:20.328Z,2.70
2022-09-21T15:50:01.674Z,2.20
2022-09-21T15:52:43.071Z,2.00
2022-09-21T15:55:23.190Z,2.40
2022-09-21T15:57:57.801Z,3.50
2022-09-21T16:00:39.030Z,2.90
2022-09-21T16:03:21.438Z,2.50
2022-09-21T16:05:54.717Z,4.40
2022-09-21T16:08:36.134Z,5.10
2022-09-21T16:11:35.469Z,5.80
2022-09-21T16:14:39.543Z,6.10
2022-09-21T16:17:27.904Z,7.10
2022-09-21T16:20:13.915Z,10.00
2022-09-21T16:22:47.867Z,14.20
2022-09-21T16:25:20.250Z,12.70
2022-09-21T16:28:06.277Z,9.80
2022-09-21T16:30:53.171Z,8.60
2022-09-21T16:33:46.632Z,8.40
2022-09-21T16:37:23.840Z,12.20
2022-09-21T16:39:35.266Z,13.00
2022-09-21T16:42:06.104Z,9.40
2022-09-21T16:44:41.252Z,6.30
2022-09-21T16:47:25.765Z,7.70
2022-09-21T16:50:01.713Z,8.40
2022-09-21T16:52:31.655Z,8.20
2022-09-21T16:55:01.321Z,8.50
2022-09-21T16:57:30.696Z,7.30
2022-09-21T17:00:00.235Z,5.60
2022-09-21T17:02:31.676Z,5.70
2022-09-21T17:05:02.336Z,5.60
2022-09-21T17:07:34.356Z,8.20
2022-09-21T17:12:47.956Z,9.20
2022-09-21T17:15:20.207Z,8.90
2022-09-21T17:18:05.132Z,9.00
2022-09-21T17:20:46.053Z,10.20
2022-09-21T17:23:25.968Z,9.20
2022-09-21T17:26:04.920Z,11.00
2022-09-21T17:28:58.596Z,11.10
2022-09-21T17:31:55.541Z,12.10
2022-09-21T17:34:53.690Z,11.20
2022-09-21T17:37:51.025Z,13.50
2022-09-21T17:40:39.941Z,13.50
2022-09-21T17:43:22.586Z,16.00
2022-09-21T17:46:15.727Z,18.30
2022-09-21T17:48:46.136Z,19.10
2022-09-21T17:51:38.143Z,19.30
2022-09-21T17:54:08.285Z,18.30
2022-09-21T17:57:12.986Z,20.70
2022-09-21T17:59:48.866Z,21.20
2022-09-21T18:02:26.421Z,21.00
2022-09-21T18:05:09.430Z,22.00
2022-09-21T18:07:41.026Z,18.20
2022-09-21T18:10:25.160Z,18.40
2022-09-21T18:13:07.812Z,18.00
2022-09-21T18:16:12.770Z,18.30
2022-09-21T18:18:58.509Z,17.30
2022-09-21T18:21:29.331Z,17.60
2022-09-21T18:24:33.011Z,18.00
2022-09-21T18:27:16.711Z,17.40
2022-09-21T18:29:53.847Z,17.00
2022-09-21T18:32:51.531Z,16.50
2022-09-21T18:35:56.593Z,20.50
2022-09-21T18:39:14.515Z,22.80
2022-09-21T18:41:59.259Z,26.60
2022-09-21T18:44:50.225Z,26.80
2022-09-21T18:47:33.793Z,27.50
2022-09-21T18:50:20.203Z,27.00
2022-09-21T18:53:26.355Z,28.20
2022-09-21T18:56:03.579Z,27.10
2022-09-21T18:58:39.718Z,27.40
2022-09-21T19:01:19.088Z,28.80
2022-09-21T19:03:49.914Z,35.40
2022-09-21T19:06:55.343Z,30.50
2022-09-21T19:10:04.149Z,26.90
2022-09-21T19:13:28.536Z,29.20
2022-09-21T19:16:07.496Z,28.70
2022-09-21T19:18:49.427Z,27.90
2022-09-21T19:24:43.355Z,30.80
2022-09-21T19:27:40.821Z,31.40
2022-09-21T19:30:16.791Z,29.90
2022-09-21T19:33:00.812Z,31.20
2022-09-21T19:35:36.828Z,34.60
2022-09-21T19:38:10.537Z,34.10
2022-09-21T19:40:53.156Z,32.80
2022-09-21T19:43:42.489Z,33.60
2022-09-21T19:46:34.211Z,39.20
2022-09-21T19:49:18.250Z,35.20
2022-09-21T19:51:53.557Z,35.30
2022-09-21T19:54:45.413Z,33.60
2022-09-21T19:57:38.251Z,33.50
2022-09-21T20:00:14.536Z,34.60
2022-09-21T20:03:16.971Z,29.90
2022-09-21T20:06:22.297Z,28.90
2022-09-21T20:09:24.044Z,26.80
2022-09-21T20:12:13.730Z,26.30
2022-09-21T20:15:08.049Z,25.80
2022-09-21T20:18:02.983Z,25.10
2022-09-21T20:20:32.414Z,25.70
2022-09-21T20:23:03.188Z,24.30
2022-09-21T20:26:00.100Z,24.10
2022-09-21T20:28:29.832Z,23.50
2022-09-21T20:30:59.724Z,22.50
2022-09-21T20:33:31.694Z,22.90
2022-09-21T20:36:02.791Z,21.10
2022-09-21T20:38:34.604Z,20.90
2022-09-21T20:41:05.204Z,21.70
2022-09-21T20:43:35.526Z,21.30
2022-09-21T20:46:08.435Z,21.10
2022-09-21T20:48:41.426Z,22.40
2022-09-21T20:51:11.619Z,23.30
2022-09-21T20:53:43.543Z,23.00
2022-09-21T20:58:46.144Z,22.40
2022-09-21T21:01:27.301Z,21.80
2022-09-21T21:04:13.262Z,21.00
2022-09-21T21:06:47.864Z,21.10
2022-09-21T21:09:19.884Z,19.60
2022-09-21T21:11:52.703Z,19.60
2022-09-21T21:14:26.199Z,19.40
2022-09-21T21:16:55.690Z,20.10
2022-09-21T21:19:35.276Z,19.20
2022-09-21T21:22:05.620Z,19.70
2022-09-21T21:24:44.119Z,19.80
2022-09-21T21:27:27.351Z,18.80
2022-09-21T21:30:01.316Z,19.90
2022-09-21T21:32:38.954Z,24.30
2022-09-21T21:35:09.383Z,21.50
2022-09-21T21:37:46.075Z,20.00
2022-09-21T21:40:20.738Z,21.50
2022-09-21T21:42:58.801Z,21.40
2022-09-21T21:45:30.883Z,21.70
2022-09-21T21:48:00.483Z,21.70
2022-09-21T21:50:29.635Z,22.30
2022-09-21T21:52:58.874Z,24.10
2022-09-21T21:55:28.484Z,24.10
2022-09-21T21:57:57.703Z,24.00
2022-09-21T22:00:27.062Z,23.10
2022-09-21T22:02:56.937Z,22.00
2022-09-21T22:05:26.327Z,22.60
2022-09-21T22:07:55.380Z,20.40
2022-09-21T22:10:25.004Z,22.90
2022-09-21T22:12:57.328Z,21.70
2022-09-21T22:15:26.859Z,22.50
2022-09-21T22:17:56.225Z,21.90
2022-09-21T22:20:25.435Z,24.40
2022-09-21T22:22:54.939Z,22.60
2022-09-21T22:25:28.634Z,24.10
2022-09-21T22:27:57.965Z,22.90
2022-09-21T22:30:27.098Z,23.30
2022-09-21T22:32:56.488Z,21.50
2022-09-21T22:35:25.622Z,24.10
2022-09-21T22:37:56.143Z,22.70
2022-09-21T22:40:25.365Z,23.80
2022-09-21T22:42:54.590Z,21.50
2022-09-21T22:45:26.592Z,21.40
2022-09-21T22:47:55.823Z,21.00
2022-09-21T22:50:25.869Z,21.10
2022-09-21T22:52:55.332Z,21.10
2022-09-21T22:55:25.047Z,18.90
2022-09-21T22:57:54.032Z,17.70
2022-09-21T23:00:23.078Z,16.40
2022-09-21T23:02:57.281Z,15.70
2022-09-21T23:05:26.962Z,15.70
2022-09-21T23:07:56.844Z,16.00
2022-09-21T23:10:27.284Z,13.70
2022-09-21T23:15:29.839Z,14.80
2022-09-21T23:17:58.949Z,12.80
2022-09-21T23:20:28.147Z,13.70
2022-09-21T23:22:57.814Z,14.20
2022-09-21T23:25:27.100Z,12.60
2022-09-21T23:27:57.444Z,12.80
2022-09-21T23:30:26.518Z,13.80
2022-09-21T23:32:55.664Z,14.60
2022-09-21T23:35:24.791Z,14.60
2022-09-21T23:37:54.060Z,13.80
2022-09-21T23:40:24.661Z,15.70
2022-09-21T23:42:53.713Z,16.00
2022-09-21T23:45:23.041Z,16.00
2022-09-21T23:47:52.086Z,14.50
2022-09-21T23:50:21.225Z,15.50
2022-09-21T23:52:50.305Z,15.80
2022-09-21T23:55:19.324Z,14.90
2022-09-21T23:57:48.495Z,15.30
